Time;durP1;ratioP1;P1;durP2;ratioP2;P2;SDS_P1;SDS_P2;PMS_P1;PMS_P2;Temp;Humidity;BMP_temperature;BMP_pressure;BME280_temperature;BME280_humidity;BME280_pressure;Samples;Min_cycle;Max_cycle;Signal;HPM_P1;HPM_P2
2021/11/06 00:01:07;;;;;;;35.80;32.70;;;5.70;99.90;;;;;;5094212;28;20470;-69
2021/11/06 00:03:36;;;;;;;37.30;33.63;;;5.70;99.90;;;;;;5099469;28;20465;-70
2021/11/06 00:06:03;;;;;;;37.43;33.80;;;5.70;99.90;;;;;;5088016;28;20515;-69
2021/11/06 00:08:29;;;;;;;36.13;32.80;;;5.60;99.90;;;;;;5096339;28;20465;-68
2021/11/06 00:10:57;;;;;;;36.77;33.20;;;5.60;99.90;;;;;;5094136;28;20478;-69
2021/11/06 00:13:24;;;;;;;36.87;33.50;;;5.50;99.90;;;;;;5096997;28;20967;-69
2021/11/06 00:15:51;;;;;;;34.30;31.10;;;5.60;99.90;;;;;;5093092;28;20984;-68
2021/11/06 00:18:19;;;;;;;37.37;33.47;;;5.60;99.90;;;;;;5092459;28;20461;-69
2021/11/06 00:20:46;;;;;;;35.73;32.30;;;5.50;99.90;;;;;;5087871;28;20826;-70
2021/11/06 00:23:13;;;;;;;35.70;32.40;;;5.50;99.90;;;;;;5094234;28;20451;-69
2021/11/06 00:25:39;;;;;;;36.27;32.60;;;5.40;99.90;;;;;;5093743;28;21691;-69
2021/11/06 00:28:06;;;;;;;37.93;34.37;;;5.40;99.90;;;;;;5102680;28;20483;-69
2021/11/06 00:30:33;;;;;;;36.47;32.50;;;5.30;99.90;;;;;;5096035;28;20587;-69
2021/11/06 00:33:01;;;;;;;34.30;30.90;;;5.40;99.90;;;;;;5095794;28;20560;-69
2021/11/06 00:35:30;;;;;;;38.43;34.50;;;5.40;99.90;;;;;;5095082;28;20793;-69
2021/11/06 00:37:57;;;;;;;36.90;33.33;;;5.40;99.90;;;;;;5098460;28;20463;-68
2021/11/06 00:40:24;;;;;;;36.80;32.30;;;5.40;99.90;;;;;;5097702;28;20472;-68
2021/11/06 00:42:51;;;;;;;35.47;31.83;;;5.50;99.90;;;;;;5101367;28;20479;-69
2021/11/06 00:45:18;;;;;;;35.43;32.40;;;5.50;99.90;;;;;;5109956;28;20452;-69
2021/11/06 00:47:45;;;;;;;34.33;31.40;;;5.60;99.90;;;;;;5104832;28;20578;-68
2021/11/06 00:50:16;;;;;;;36.77;31.20;;;5.60;99.90;;;;;;5104393;28;20560;-68
2021/11/06 00:52:46;;;;;;;36.23;32.53;;;5.60;99.90;;;;;;5103781;28;20500;-69
2021/11/06 00:55:13;;;;;;;34.77;31.33;;;5.70;99.90;;;;;;5104349;28;20454;-69
2021/11/06 00:57:40;;;;;;;41.83;32.70;;;5.60;99.90;;;;;;5110706;28;20475;-69
2021/11/06 01:00:11;;;;;;;37.20;33.37;;;5.60;99.90;;;;;;5101739;28;20472;-69
2021/11/06 01:02:39;;;;;;;34.80;31.30;;;5.60;99.90;;;;;;5103360;28;20457;-68
2021/11/06 01:05:08;;;;;;;35.70;32.13;;;5.60;99.90;;;;;;5105877;28;20453;-69
2021/11/06 01:07:35;;;;;;;36.80;31.47;;;5.60;99.90;;;;;;5106742;28;20457;-68
2021/11/06 01:10:04;;;;;;;38.67;31.90;;;5.70;99.90;;;;;;5107538;28;20450;-69
2021/11/06 01:12:32;;;;;;;36.37;32.70;;;5.50;99.90;;;;;;5097525;28;20535;-68
2021/11/06 01:14:59;;;;;;;35.37;31.97;;;5.50;99.90;;;;;;5097452;28;20458;-68
2021/11/06 01:17:26;;;;;;;38.80;34.23;;;5.40;99.90;;;;;;5095664;28;20473;-69
2021/11/06 01:19:52;;;;;;;38.37;34.37;;;5.40;99.90;;;;;;5093876;28;20842;-69
2021/11/06 01:22:19;;;;;;;36.60;32.83;;;5.40;99.90;;;;;;5093409;28;21015;-68
2021/11/06 01:24:46;;;;;;;37.10;33.60;;;5.30;99.90;;;;;;5097885;28;20516;-69
2021/11/06 01:27:15;;;;;;;43.50;35.27;;;5.30;99.90;;;;;;5101075;28;20465;-71
2021/11/06 01:29:42;;;;;;;35.70;32.30;;;5.20;99.90;;;;;;5096220;28;20458;-72
2021/11/06 01:32:09;;;;;;;37.63;34.00;;;5.20;99.90;;;;;;5094667;28;20984;-70
2021/11/06 01:34:38;;;;;;;39.50;35.70;;;5.20;99.90;;;;;;5097996;28;20461;-72
2021/11/06 01:37:05;;;;;;;39.60;35.50;;;5.10;99.90;;;;;;5099008;28;20492;-70
2021/11/06 01:39:32;;;;;;;40.00;35.13;;;5.00;99.90;;;;;;5098944;28;20472;-71
2021/11/06 01:41:59;;;;;;;41.20;33.00;;;5.10;99.90;;;;;;5097478;28;20462;-72
2021/11/06 01:44:30;;;;;;;36.77;33.57;;;5.10;99.90;;;;;;5091670;28;20454;-71
2021/11/06 01:46:57;;;;;;;37.23;33.70;;;5.10;99.90;;;;;;5094099;28;20509;-68
2021/11/06 01:49:24;;;;;;;37.83;33.80;;;5.10;99.90;;;;;;5090781;28;20468;-68
2021/11/06 01:51:52;;;;;;;42.90;36.17;;;5.10;99.90;;;;;;5105238;28;20486;-68
2021/11/06 01:54:21;;;;;;;39.33;35.43;;;5.10;99.90;;;;;;5091148;28;20454;-68
2021/11/06 01:56:48;;;;;;;36.70;32.67;;;5.10;99.90;;;;;;5094156;28;20465;-68
2021/11/06 01:59:15;;;;;;;42.73;34.17;;;5.10;99.90;;;;;;5097773;28;20509;-68
2021/11/06 02:01:44;;;;;;;38.87;34.57;;;5.10;99.90;;;;;;5098170;28;20471;-68
2021/11/06 02:04:11;;;;;;;40.17;36.10;;;5.10;99.90;;;;;;5095595;28;20991;-72
2021/11/06 02:06:38;;;;;;;43.47;38.90;;;5.10;99.90;;;;;;5095663;28;21330;-71
2021/11/06 02:09:05;;;;;;;50.70;38.47;;;5.10;99.90;;;;;;5103766;28;20465;-71
2021/11/06 02:11:32;;;;;;;45.33;37.77;;;5.10;99.90;;;;;;5096659;28;20470;-69
2021/11/06 02:13:59;;;;;;;38.73;34.67;;;5.10;99.90;;;;;;5095662;28;20462;-72
2021/11/06 02:16:26;;;;;;;38.67;34.53;;;5.20;99.90;;;;;;5094888;28;20450;-69
2021/11/06 02:18:54;;;;;;;39.77;34.93;;;5.10;99.90;;;;;;5094825;28;20462;-69
2021/11/06 02:21:23;;;;;;;39.67;34.87;;;5.10;99.90;;;;;;5093371;28;20484;-71
2021/11/06 02:23:50;;;;;;;42.90;36.83;;;5.10;99.90;;;;;;5096258;28;20463;-72
2021/11/06 02:26:20;;;;;;;42.30;36.80;;;5.10;99.90;;;;;;5098044;28;21023;-68
2021/11/06 02:28:49;;;;;;;39.00;34.83;;;5.10;99.90;;;;;;5105013;28;20458;-69
2021/11/06 02:31:16;;;;;;;42.80;37.87;;;5.00;99.90;;;;;;5095707;28;20491;-71
2021/11/06 02:33:43;;;;;;;53.43;36.03;;;5.00;99.90;;;;;;5093018;28;20965;-68
2021/11/06 02:36:10;;;;;;;40.80;36.47;;;5.00;99.90;;;;;;5096316;28;20552;-70
2021/11/06 02:38:38;;;;;;;40.70;36.80;;;4.90;99.90;;;;;;5097803;28;20540;-72
2021/11/06 02:41:05;;;;;;;42.33;34.23;;;5.00;99.90;;;;;;5100434;28;20461;-69
2021/11/06 02:43:32;;;;;;;38.53;34.20;;;5.00;99.90;;;;;;5099535;28;20461;-70
2021/11/06 02:45:59;;;;;;;38.20;34.37;;;4.90;99.90;;;;;;5092461;28;20539;-72
2021/11/06 02:48:26;;;;;;;40.17;35.83;;;4.90;99.90;;;;;;5098303;28;20466;-68
2021/11/06 02:50:54;;;;;;;38.13;34.27;;;5.00;99.90;;;;;;5093715;28;20458;-69
2021/11/06 02:53:21;;;;;;;44.10;36.83;;;5.00;99.90;;;;;;5088297;28;20458;-68
2021/11/06 02:55:50;;;;;;;38.37;33.30;;;5.00;99.90;;;;;;5093875;28;20469;-68
2021/11/06 02:58:17;;;;;;;38.20;32.90;;;5.00;99.90;;;;;;5094099;28;20458;-69
2021/11/06 03:00:45;;;;;;;35.53;32.10;;;5.00;99.90;;;;;;5097985;28;21198;-68
2021/11/06 03:03:12;;;;;;;36.43;32.97;;;5.00;99.90;;;;;;5095999;28;20891;-68
2021/11/06 03:05:39;;;;;;;36.70;33.20;;;4.90;99.90;;;;;;5097967;28;20558;-68
2021/11/06 03:08:06;;;;;;;38.93;34.87;;;4.90;99.90;;;;;;5096024;28;20458;-69
2021/11/06 03:10:33;;;;;;;36.80;33.37;;;4.90;99.90;;;;;;5095387;28;20865;-69
2021/11/06 03:13:02;;;;;;;36.93;33.47;;;4.90;99.90;;;;;;5091951;28;20836;-69
2021/11/06 03:15:29;;;;;;;37.57;34.13;;;4.90;99.90;;;;;;5095357;28;20460;-69
2021/11/06 03:17:56;;;;;;;36.77;33.27;;;4.90;99.90;;;;;;5088922;28;20458;-68
2021/11/06 03:20:23;;;;;;;37.00;32.70;;;4.90;99.90;;;;;;5092437;28;20474;-68
2021/11/06 03:22:56;;;;;;;37.90;34.27;;;4.80;99.90;;;;;;5096275;28;20477;-69
2021/11/06 03:25:24;;;;;;;33.50;30.80;;;4.80;99.90;;;;;;5094088;28;20484;-68
2021/11/06 03:27:51;;;;;;;35.83;32.03;;;4.80;99.90;;;;;;5095873;28;21284;-69
2021/11/06 03:30:19;;;;;;;35.93;32.50;;;4.80;99.90;;;;;;5091581;28;20987;-68
2021/11/06 03:32:46;;;;;;;35.47;32.10;;;4.80;99.90;;;;;;5094109;28;20505;-69
2021/11/06 03:35:14;;;;;;;35.33;32.10;;;4.80;99.90;;;;;;5092628;28;20979;-68
2021/11/06 03:37:42;;;;;;;33.93;30.90;;;4.70;99.90;;;;;;5088073;28;20449;-68
2021/11/06 03:40:11;;;;;;;35.30;31.90;;;4.80;99.90;;;;;;5095858;28;20469;-68
2021/11/06 03:42:38;;;;;;;34.67;31.53;;;4.70;99.90;;;;;;5094719;28;20461;-68
2021/11/06 03:45:06;;;;;;;34.90;31.80;;;4.70;99.90;;;;;;5092628;28;20566;-69
2021/11/06 03:47:35;;;;;;;34.60;31.27;;;4.70;99.90;;;;;;5098414;28;20453;-68
2021/11/06 03:50:01;;;;;;;36.60;33.40;;;4.70;99.90;;;;;;5099275;28;20454;-68
2021/11/06 03:52:28;;;;;;;33.03;30.13;;;4.70;99.90;;;;;;5095443;28;20478;-68
2021/11/06 03:54:55;;;;;;;31.90;29.17;;;4.60;99.90;;;;;;5095790;28;20449;-68
2021/11/06 03:57:22;;;;;;;33.37;30.40;;;4.70;99.90;;;;;;5097006;28;20462;-68
2021/11/06 03:59:49;;;;;;;34.30;31.23;;;4.60;99.90;;;;;;5095443;28;20460;-69
2021/11/06 04:02:16;;;;;;;33.03;30.07;;;4.70;99.90;;;;;;5098967;28;20469;-68
2021/11/06 04:04:44;;;;;;;33.87;30.57;;;4.70;99.90;;;;;;5093709;28;20569;-68
2021/11/06 04:07:11;;;;;;;35.23;31.77;;;4.70;99.90;;;;;;5097861;28;20461;-68
2021/11/06 04:09:38;;;;;;;35.70;31.10;;;4.70;99.90;;;;;;5089600;28;20454;-68
2021/11/06 04:12:05;;;;;;;35.83;32.60;;;4.70;99.90;;;;;;5093201;28;20494;-68
2021/11/06 04:14:32;;;;;;;34.70;31.50;;;4.60;99.90;;;;;;5091505;28;20462;-68
2021/11/06 04:17:00;;;;;;;36.83;33.30;;;4.70;99.90;;;;;;5092587;28;20464;-68
2021/11/06 04:19:27;;;;;;;37.13;33.47;;;4.70;99.90;;;;;;5095737;28;20631;-68
2021/11/06 04:21:56;;;;;;;35.83;32.50;;;4.70;99.90;;;;;;5097940;28;20539;-68
2021/11/06 04:24:23;;;;;;;34.13;31.00;;;4.70;99.90;;;;;;5096078;28;20462;-68
2021/11/06 04:26:50;;;;;;;33.20;29.80;;;4.70;99.90;;;;;;5092958;28;20837;-68
2021/11/06 04:29:17;;;;;;;34.87;30.93;;;4.60;99.90;;;;;;5097637;28;20470;-68
2021/11/06 04:31:44;;;;;;;35.43;32.13;;;4.60;99.90;;;;;;5101548;28;20536;-68
2021/11/06 04:34:11;;;;;;;35.60;32.13;;;4.70;99.90;;;;;;5098958;28;20458;-68
2021/11/06 04:36:37;;;;;;;45.87;33.10;;;4.70;99.90;;;;;;5097066;28;20453;-68
2021/11/06 04:39:06;;;;;;;36.03;32.10;;;4.70;99.90;;;;;;5098087;28;20461;-68
2021/11/06 04:41:33;;;;;;;37.23;33.10;;;4.70;99.90;;;;;;5104343;28;20846;-68
2021/11/06 04:44:00;;;;;;;37.30;33.30;;;4.70;99.90;;;;;;5102537;28;20457;-68
2021/11/06 04:46:27;;;;;;;36.23;32.53;;;4.70;99.90;;;;;;5095622;28;20457;-68
2021/11/06 04:48:53;;;;;;;41.00;33.27;;;4.70;99.90;;;;;;5100244;28;20464;-68
2021/11/06 04:51:21;;;;;;;39.53;34.37;;;4.80;99.90;;;;;;5097760;28;20465;-68
2021/11/06 04:53:48;;;;;;;40.10;33.37;;;4.80;99.90;;;;;;5100425;28;20598;-68
2021/11/06 04:56:16;;;;;;;44.13;33.73;;;4.80;99.90;;;;;;5099197;28;20499;-68
2021/11/06 04:58:43;;;;;;;36.83;33.10;;;4.80;99.90;;;;;;5096343;28;20531;-68
2021/11/06 05:01:10;;;;;;;39.43;34.17;;;4.80;99.90;;;;;;5094110;28;20477;-69
2021/11/06 05:03:37;;;;;;;40.27;35.43;;;4.80;99.90;;;;;;5096406;28;20544;-69
2021/11/06 05:06:04;;;;;;;42.83;35.50;;;4.80;99.90;;;;;;5099961;28;20453;-69
2021/11/06 05:08:31;;;;;;;42.50;35.60;;;4.80;99.90;;;;;;5092093;28;20984;-68
2021/11/06 05:10:58;;;;;;;39.40;35.27;;;4.80;99.90;;;;;;5098364;28;20457;-69
2021/11/06 05:13:26;;;;;;;48.47;35.97;;;4.80;99.90;;;;;;5093501;28;20485;-68
2021/11/06 05:15:53;;;;;;;41.77;35.23;;;4.80;99.90;;;;;;5095426;28;20461;-68
2021/11/06 05:18:20;;;;;;;49.10;35.43;;;4.80;99.90;;;;;;5096560;28;20474;-68
2021/11/06 05:20:47;;;;;;;45.03;34.93;;;4.80;99.90;;;;;;5099849;28;20460;-68
2021/11/06 05:23:14;;;;;;;40.03;34.73;;;4.80;99.90;;;;;;5092068;28;20454;-68
2021/11/06 05:25:43;;;;;;;41.30;35.90;;;4.80;99.90;;;;;;5101056;28;20489;-68
2021/11/06 05:28:11;;;;;;;45.60;35.13;;;4.80;99.90;;;;;;5095163;28;20462;-69
2021/11/06 05:30:40;;;;;;;42.73;36.70;;;4.80;99.90;;;;;;5099792;28;20482;-69
2021/11/06 05:33:07;;;;;;;51.20;37.93;;;4.80;99.90;;;;;;5091296;28;20494;-68
2021/11/06 05:35:34;;;;;;;41.13;33.93;;;4.70;99.90;;;;;;5098404;28;20480;-69
2021/11/06 05:38:01;;;;;;;44.13;35.00;;;4.80;99.90;;;;;;5098419;28;20492;-68
2021/11/06 05:40:28;;;;;;;38.77;34.60;;;4.80;99.90;;;;;;5096959;28;20493;-69
2021/11/06 05:42:56;;;;;;;41.17;33.90;;;4.80;99.90;;;;;;5091067;28;20494;-68
2021/11/06 05:45:23;;;;;;;44.97;36.30;;;4.80;99.90;;;;;;5102172;28;20534;-68
2021/11/06 05:47:51;;;;;;;39.43;35.27;;;4.80;99.90;;;;;;5098929;28;20540;-68
2021/11/06 05:50:19;;;;;;;39.07;34.73;;;4.80;99.90;;;;;;5092366;28;20460;-68
2021/11/06 05:52:46;;;;;;;38.40;32.33;;;4.70;99.90;;;;;;5100936;28;20493;-69
2021/11/06 05:55:16;;;;;;;39.30;32.13;;;4.80;99.90;;;;;;5100217;28;21018;-68
2021/11/06 05:57:44;;;;;;;37.13;32.83;;;4.80;99.90;;;;;;5097993;28;20466;-68
2021/11/06 06:00:13;;;;;;;38.20;31.90;;;4.80;99.90;;;;;;5095633;28;20526;-68
2021/11/06 06:02:40;;;;;;;34.53;30.73;;;4.80;99.90;;;;;;5098534;28;20473;-68
2021/11/06 06:05:09;;;;;;;34.80;31.10;;;4.80;99.90;;;;;;5091383;28;20822;-68
2021/11/06 06:07:36;;;;;;;38.20;31.90;;;4.90;99.90;;;;;;5090070;28;20948;-68
2021/11/06 06:10:05;;;;;;;36.47;32.60;;;4.90;99.90;;;;;;5096448;28;20458;-69
2021/11/06 06:12:32;;;;;;;36.30;31.43;;;4.90;99.90;;;;;;5096025;28;20495;-68
2021/11/06 06:14:59;;;;;;;36.40;32.33;;;4.90;99.90;;;;;;5095070;28;20461;-68
2021/11/06 06:17:26;;;;;;;36.87;33.00;;;4.90;99.90;;;;;;5099713;28;20472;-68
2021/11/06 06:19:53;;;;;;;36.57;32.77;;;4.80;99.90;;;;;;5094802;28;20461;-68
2021/11/06 06:22:24;;;;;;;37.57;33.57;;;4.80;99.90;;;;;;5098322;28;20820;-68
2021/11/06 06:24:50;;;;;;;40.43;34.13;;;4.80;99.90;;;;;;5095371;28;20461;-68
2021/11/06 06:27:18;;;;;;;41.50;33.83;;;4.80;99.90;;;;;;5094415;28;20818;-69
2021/11/06 06:29:45;;;;;;;40.87;32.90;;;4.80;99.90;;;;;;5098481;28;20473;-68
2021/11/06 06:32:13;;;;;;;36.23;32.67;;;4.80;99.90;;;;;;5098280;28;20523;-68
2021/11/06 06:34:40;;;;;;;38.63;33.60;;;4.80;99.90;;;;;;5090638;28;20470;-68
2021/11/06 06:37:07;;;;;;;41.50;32.80;;;4.90;99.90;;;;;;5095120;28;20827;-69
2021/11/06 06:39:36;;;;;;;43.60;34.93;;;4.90;99.90;;;;;;5088612;28;20462;-68
2021/11/06 06:42:04;;;;;;;41.50;33.93;;;4.90;99.90;;;;;;5095185;28;20541;-68
2021/11/06 06:44:32;;;;;;;37.40;32.17;;;4.90;99.90;;;;;;5094121;28;20841;-68
2021/11/06 06:47:00;;;;;;;35.23;28.73;;;4.90;99.90;;;;;;5092786;28;20500;-68
2021/11/06 06:49:26;;;;;;;38.17;31.77;;;4.90;99.90;;;;;;5094913;28;20454;-68
2021/11/06 06:51:54;;;;;;;38.80;32.27;;;4.90;99.90;;;;;;5096941;28;20708;-68
2021/11/06 06:54:23;;;;;;;39.13;31.90;;;5.00;99.90;;;;;;5098750;28;20520;-68
2021/11/06 06:56:52;;;;;;;36.70;32.90;;;5.00;99.90;;;;;;5098010;28;20819;-68
2021/11/06 06:59:19;;;;;;;36.80;32.90;;;5.00;99.90;;;;;;5091525;28;20463;-68
2021/11/06 07:01:46;;;;;;;35.50;31.67;;;5.00;99.90;;;;;;5099635;28;20472;-69
2021/11/06 07:04:14;;;;;;;38.17;33.40;;;5.10;99.90;;;;;;5096654;28;20829;-68
2021/11/06 07:06:41;;;;;;;35.90;31.93;;;5.10;99.90;;;;;;5087859;28;20458;-68
2021/11/06 07:09:08;;;;;;;43.53;33.87;;;5.10;99.90;;;;;;5096628;28;20457;-68
2021/11/06 07:11:35;;;;;;;34.27;30.70;;;5.10;99.90;;;;;;5096062;28;21037;-68
2021/11/06 07:14:04;;;;;;;38.90;32.67;;;5.10;99.90;;;;;;5093552;28;20521;-68
2021/11/06 07:16:31;;;;;;;37.13;30.13;;;5.20;99.90;;;;;;5096341;28;20483;-68
2021/11/06 07:18:57;;;;;;;36.23;28.50;;;5.20;99.90;;;;;;5098667;28;20457;-68
2021/11/06 07:21:24;;;;;;;32.00;28.63;;;5.30;99.90;;;;;;5093978;28;20478;-68
2021/11/06 07:23:51;;;;;;;32.73;29.40;;;5.30;99.90;;;;;;5088894;28;20459;-69
2021/11/06 07:26:18;;;;;;;27.60;24.90;;;5.30;99.90;;;;;;5087621;28;20477;-68
2021/11/06 07:28:45;;;;;;;33.23;29.33;;;5.30;99.90;;;;;;5095655;28;20491;-68
2021/11/06 07:31:14;;;;;;;29.80;26.70;;;5.30;99.90;;;;;;5096597;28;20811;-68
2021/11/06 07:33:41;;;;;;;32.53;26.93;;;5.40;99.90;;;;;;5088202;28;20485;-68
2021/11/06 07:36:09;;;;;;;33.87;30.27;;;5.40;99.90;;;;;;5093058;28;20562;-68
2021/11/06 07:38:36;;;;;;;32.70;27.57;;;5.50;99.90;;;;;;5091484;28;20545;-68
2021/11/06 07:41:03;;;;;;;40.07;30.67;;;5.60;99.90;;;;;;5100449;28;20472;-68
2021/11/06 07:43:30;;;;;;;30.93;27.63;;;5.60;99.90;;;;;;5089577;28;20975;-68
2021/11/06 07:45:57;;;;;;;31.00;27.57;;;5.60;99.90;;;;;;5095809;28;20531;-68
2021/11/06 07:48:26;;;;;;;33.73;28.07;;;5.70;99.90;;;;;;5095317;28;20459;-68
2021/11/06 07:50:53;;;;;;;30.73;27.70;;;5.70;99.90;;;;;;5097996;28;20573;-68
2021/11/06 07:53:19;;;;;;;32.03;28.80;;;5.80;99.90;;;;;;5092479;28;21002;-68
2021/11/06 07:55:46;;;;;;;31.97;27.93;;;5.90;99.90;;;;;;5098843;28;20456;-68
2021/11/06 07:58:14;;;;;;;30.97;27.77;;;5.90;99.90;;;;;;5097810;28;20468;-70
2021/11/06 08:00:41;;;;;;;31.30;28.10;;;5.90;99.90;;;;;;5103769;28;20552;-68
2021/11/06 08:03:09;;;;;;;30.73;27.37;;;6.00;99.90;;;;;;5098015;28;20488;-68
2021/11/06 08:05:37;;;;;;;31.00;27.50;;;6.00;99.90;;;;;;5094888;28;20875;-68
2021/11/06 08:08:05;;;;;;;30.60;26.53;;;6.00;99.90;;;;;;5099852;28;20469;-68
2021/11/06 08:10:32;;;;;;;33.53;25.83;;;6.10;99.90;;;;;;5095980;28;20471;-68
2021/11/06 08:13:01;;;;;;;28.63;25.57;;;6.10;99.90;;;;;;5095978;28;20519;-68
2021/11/06 08:15:29;;;;;;;27.73;24.80;;;6.10;99.90;;;;;;5094738;28;20583;-68
2021/11/06 08:17:56;;;;;;;28.00;25.07;;;6.20;99.90;;;;;;5098303;28;20814;-68
2021/11/06 08:20:23;;;;;;;27.17;24.10;;;6.30;99.90;;;;;;5102682;28;20456;-69
2021/11/06 08:22:53;;;;;;;27.03;24.27;;;6.30;99.90;;;;;;5096244;28;20485;-69
2021/11/06 08:25:22;;;;;;;26.37;23.50;;;6.40;99.90;;;;;;5096179;28;20470;-69
2021/11/06 08:27:53;;;;;;;26.03;23.47;;;6.40;99.90;;;;;;5100890;28;20543;-69
2021/11/06 08:30:21;;;;;;;25.20;22.80;;;6.50;99.90;;;;;;5098846;28;20482;-69
2021/11/06 08:32:49;;;;;;;26.70;24.00;;;6.60;99.90;;;;;;5096365;28;20853;-69
2021/11/06 08:35:17;;;;;;;27.43;23.13;;;6.70;99.90;;;;;;5097836;28;20955;-69
2021/11/06 08:37:44;;;;;;;24.30;21.87;;;6.70;99.90;;;;;;5097296;28;20462;-69
2021/11/06 08:40:13;;;;;;;23.87;21.47;;;6.90;99.90;;;;;;5096885;28;20465;-73
2021/11/06 08:42:40;;;;;;;22.93;20.73;;;6.90;99.90;;;;;;5094973;28;20477;-70
2021/11/06 08:45:10;;;;;;;25.20;21.70;;;7.00;99.90;;;;;;5096291;28;20472;-71
2021/11/06 08:47:38;;;;;;;24.40;21.90;;;7.10;99.90;;;;;;5094988;28;20486;-72
2021/11/06 08:50:05;;;;;;;22.73;20.73;;;7.20;99.90;;;;;;5094369;28;20466;-69
2021/11/06 08:52:33;;;;;;;23.07;21.07;;;7.30;99.90;;;;;;5095440;28;20646;-72
2021/11/06 08:55:01;;;;;;;24.20;21.77;;;7.30;99.90;;;;;;5097905;28;20482;-72
2021/11/06 08:57:29;;;;;;;22.37;20.50;;;7.40;99.90;;;;;;5094220;28;20455;-71
2021/11/06 09:00:04;;;;;;;23.13;20.87;;;7.40;99.90;;;;;;5100125;28;20460;-71
2021/11/06 09:02:31;;;;;;;22.70;20.70;;;7.50;99.90;;;;;;5100156;28;20460;-72
2021/11/06 09:04:58;;;;;;;22.37;20.50;;;7.50;99.90;;;;;;5098716;28;20497;-69
2021/11/06 09:07:24;;;;;;;21.43;19.50;;;7.60;99.90;;;;;;5102090;28;20984;-69
2021/11/06 09:09:51;;;;;;;21.70;19.70;;;7.60;99.90;;;;;;5099210;28;20461;-69
2021/11/06 09:12:18;;;;;;;22.67;20.70;;;7.60;99.90;;;;;;5100473;28;20493;-69
2021/11/06 09:14:47;;;;;;;22.13;20.23;;;7.70;99.90;;;;;;5094050;28;20497;-73
2021/11/06 09:17:14;;;;;;;21.20;19.20;;;7.70;99.90;;;;;;5094915;28;20988;-69
2021/11/06 09:19:41;;;;;;;22.07;19.93;;;7.80;99.90;;;;;;5091947;28;20484;-71
2021/11/06 09:22:08;;;;;;;18.70;17.30;;;7.90;99.90;;;;;;5090649;28;20519;-72
2021/11/06 09:24:35;;;;;;;21.70;19.90;;;7.90;99.90;;;;;;5090211;28;20541;-69
2021/11/06 09:27:03;;;;;;;21.80;19.50;;;8.00;99.90;;;;;;5096459;28;20490;-69
2021/11/06 09:29:30;;;;;;;21.40;19.50;;;8.10;99.90;;;;;;5094230;28;20462;-71
2021/11/06 09:31:59;;;;;;;22.20;20.20;;;8.10;99.90;;;;;;5095055;28;20481;-70
2021/11/06 09:34:27;;;;;;;20.97;19.27;;;8.20;99.90;;;;;;5090761;28;20516;-68
2021/11/06 09:36:56;;;;;;;20.77;18.80;;;8.30;99.90;;;;;;5097149;28;20556;-69
2021/11/06 09:39:23;;;;;;;20.37;18.77;;;8.30;99.90;;;;;;5096379;28;20500;-73
2021/11/06 09:41:50;;;;;;;20.57;18.63;;;8.40;99.90;;;;;;5097303;28;20467;-69
2021/11/06 09:44:17;;;;;;;19.93;18.30;;;8.40;99.90;;;;;;5089435;28;20535;-70
2021/11/06 09:46:45;;;;;;;21.40;19.43;;;8.50;99.90;;;;;;5097490;28;20460;-68
2021/11/06 09:49:14;;;;;;;20.67;18.80;;;8.60;99.90;;;;;;5099725;28;20457;-71
2021/11/06 09:51:41;;;;;;;19.97;18.03;;;8.80;99.90;;;;;;5093856;28;20461;-72
2021/11/06 09:54:08;;;;;;;20.60;18.67;;;8.90;99.90;;;;;;5090333;28;20499;-70
2021/11/06 09:56:36;;;;;;;18.67;17.13;;;9.00;99.90;;;;;;5096799;28;20456;-70
2021/11/06 09:59:04;;;;;;;21.30;19.30;;;8.90;99.90;;;;;;5095135;28;20468;-69
2021/11/06 10:01:32;;;;;;;20.47;18.93;;;9.00;99.90;;;;;;5100167;28;20687;-72
2021/11/06 10:04:00;;;;;;;21.10;19.30;;;9.00;99.90;;;;;;5096619;28;20465;-71
2021/11/06 10:06:29;;;;;;;19.47;17.50;;;9.00;99.90;;;;;;5094920;28;20476;-69
2021/11/06 10:08:58;;;;;;;20.20;18.80;;;9.20;99.90;;;;;;5090536;28;20522;-69
2021/11/06 10:11:28;;;;;;;19.77;18.00;;;9.20;99.90;;;;;;5088369;28;20466;-68
2021/11/06 10:13:57;;;;;;;19.23;17.53;;;9.30;99.90;;;;;;5100157;28;20512;-69
2021/11/06 10:16:33;;;;;;;19.07;17.73;;;9.40;99.90;;;;;;5097687;28;20454;-69
2021/11/06 10:19:09;;;;;;;19.17;17.80;;;9.50;99.90;;;;;;5106409;28;20467;-69
2021/11/06 10:21:38;;;;;;;20.23;18.50;;;9.60;99.90;;;;;;5097549;28;20479;-69
2021/11/06 10:24:06;;;;;;;18.93;17.50;;;9.80;99.90;;;;;;5094085;28;20558;-72
2021/11/06 10:26:33;;;;;;;18.20;16.90;;;10.00;99.90;;;;;;5100516;28;20771;-72
2021/11/06 10:29:09;;;;;;;18.30;17.00;;;10.40;99.90;;;;;;5096315;28;20464;-70
2021/11/06 10:32:06;;;;;;;18.20;16.50;;;10.60;99.90;;;;;;5094478;28;20986;-69
2021/11/06 10:34:35;;;;;;;18.57;16.63;;;11.00;99.90;;;;;;5087032;28;20869;-70
2021/11/06 10:37:06;;;;;;;18.10;16.87;;;11.70;99.90;;;;;;5094208;28;20468;-69
2021/11/06 10:39:33;;;;;;;16.60;15.40;;;12.00;99.90;;;;;;5094460;28;20461;-69
2021/11/06 10:42:11;;;;;;;16.53;15.43;;;11.80;99.90;;;;;;5090216;28;20467;-71
2021/11/06 10:44:40;;;;;;;18.00;16.73;;;11.40;99.90;;;;;;5088739;28;20466;-72
2021/11/06 10:47:07;;;;;;;17.57;16.20;;;11.30;99.90;;;;;;5094181;28;20460;-70
2021/11/06 10:49:36;;;;;;;18.93;17.30;;;11.30;99.90;;;;;;5087218;28;20462;-69
2021/11/06 10:52:08;;;;;;;18.37;17.07;;;11.00;99.90;;;;;;5093491;28;20977;-71
2021/11/06 10:54:56;;;;;;;17.80;16.40;;;10.80;99.90;;;;;;5095568;28;20495;-69
2021/11/06 10:57:24;;;;;;;18.07;16.70;;;10.80;99.90;;;;;;5091023;28;20458;-69
2021/11/06 11:00:07;;;;;;;18.80;17.50;;;10.90;99.90;;;;;;5097204;28;20557;-73
2021/11/06 11:02:34;;;;;;;17.40;16.20;;;11.00;99.90;;;;;;5089045;28;20466;-70
2021/11/06 11:05:01;;;;;;;16.90;15.43;;;11.20;99.90;;;;;;5092224;28;20458;-69
2021/11/06 11:07:29;;;;;;;16.30;15.03;;;11.50;99.90;;;;;;5094059;28;20818;-71
2021/11/06 11:09:56;;;;;;;15.93;14.83;;;11.30;99.90;;;;;;5100610;28;20457;-70
2021/11/06 11:12:25;;;;;;;16.27;15.17;;;11.70;99.90;;;;;;5094811;28;20484;-69
2021/11/06 11:14:55;;;;;;;16.80;15.50;;;11.60;99.90;;;;;;5092509;28;20521;-73
2021/11/06 11:17:40;;;;;;;15.83;14.93;;;12.10;99.90;;;;;;5093085;28;20458;-70
2021/11/06 11:20:24;;;;;;;16.70;15.70;;;12.60;99.90;;;;;;5096163;28;20460;-70
2021/11/06 11:23:09;;;;;;;14.97;14.17;;;13.30;99.90;;;;;;5087607;28;20502;-70
2021/11/06 11:25:36;;;;;;;15.30;14.20;;;13.30;99.90;;;;;;5097823;28;20472;-70
2021/11/06 11:28:04;;;;;;;16.53;15.53;;;12.90;99.90;;;;;;5096826;28;20504;-70
2021/11/06 11:30:31;;;;;;;15.83;14.83;;;12.70;99.90;;;;;;5096422;28;20491;-72
2021/11/06 11:33:00;;;;;;;14.97;14.07;;;12.80;99.90;;;;;;5095272;28;20462;-70
2021/11/06 11:35:28;;;;;;;15.10;14.30;;;13.20;99.90;;;;;;5087546;28;20531;-71
2021/11/06 11:37:56;;;;;;;15.90;14.90;;;13.10;99.90;;;;;;5092133;28;20489;-74
2021/11/06 11:40:27;;;;;;;14.93;14.07;;;13.20;99.90;;;;;;5089481;28;20514;-70
2021/11/06 11:43:04;;;;;;;16.47;15.13;;;13.10;99.90;;;;;;5094655;28;20530;-69
2021/11/06 11:45:40;;;;;;;15.90;15.00;;;13.20;99.90;;;;;;5093692;28;20454;-72
2021/11/06 11:48:12;;;;;;;15.30;14.40;;;13.10;99.90;;;;;;5093984;28;20464;-71
2021/11/06 11:50:42;;;;;;;15.80;14.80;;;13.00;99.90;;;;;;5086272;28;20462;-72
2021/11/06 11:53:12;;;;;;;15.67;14.87;;;13.20;99.90;;;;;;5097189;28;20467;-72
2021/11/06 11:55:44;;;;;;;15.00;14.20;;;13.10;99.90;;;;;;5094151;28;21280;-70
2021/11/06 11:58:15;;;;;;;15.00;14.10;;;12.90;99.90;;;;;;5089461;28;20971;-71
2021/11/06 12:00:48;;;;;;;15.03;14.13;;;12.80;99.90;;;;;;5091031;28;20550;-73
2021/11/06 12:03:27;;;;;;;16.03;15.03;;;12.90;99.90;;;;;;5091362;28;20462;-74
2021/11/06 12:05:54;;;;;;;15.90;14.80;;;12.90;99.90;;;;;;5089862;28;20465;-70
2021/11/06 12:08:42;;;;;;;15.70;14.80;;;13.00;99.90;;;;;;5093506;28;20445;-73
2021/11/06 12:11:19;;;;;;;14.93;14.03;;;13.60;99.90;;;;;;5094844;28;20468;-69
2021/11/06 12:13:50;;;;;;;15.20;14.40;;;14.60;99.90;;;;;;5090092;28;20540;-70
2021/11/06 12:16:20;;;;;;;13.83;13.03;;;15.50;99.90;;;;;;5088464;28;20501;-70
2021/11/06 12:18:50;;;;;;;15.13;14.43;;;15.40;99.90;;;;;;5092554;28;20462;-70
2021/11/06 12:21:36;;;;;;;15.40;14.57;;;15.10;99.90;;;;;;5094172;28;20461;-70
2021/11/06 12:24:27;;;;;;;15.00;14.20;;;14.50;99.90;;;;;;5097616;28;20567;-74
2021/11/06 12:26:59;;;;;;;15.60;14.60;;;14.20;99.90;;;;;;5095943;28;20505;-74
2021/11/06 12:29:38;;;;;;;16.07;14.97;;;14.20;99.90;;;;;;5093534;28;20461;-74
2021/11/06 12:32:19;;;;;;;14.60;13.80;;;14.20;99.90;;;;;;5099049;28;20476;-70
2021/11/06 12:34:48;;;;;;;15.70;14.80;;;14.00;99.90;;;;;;5095954;28;20481;-70
2021/11/06 12:37:47;;;;;;;14.30;13.50;;;13.90;99.90;;;;;;5101420;28;20464;-72
2021/11/06 12:40:39;;;;;;;14.33;13.63;;;14.00;99.90;;;;;;5101970;28;20556;-74
2021/11/06 12:43:17;;;;;;;14.70;13.80;;;13.90;99.90;;;;;;5087561;28;20468;-70